Columbia, Iowa
Current Conditions -  °F | °C
As of 10:55 AM on Tuesday 27 Jan 2015 (Local Time) from KOXV Reporting Station
Clear Clear  
Wind Chill:   Ceiling: Unl
Heat Index:   Visibility: 10mi
Dew Point: -1°   Wind: 5mph
Humidity: 70%   Direction: 40°NE
Pressure: 30.16"   Gusts: NA
Location:  41.18°N, 93.15°W
Report Text: KOXV 271655Z AUTO 04004KT 10SM CLR 04/M01 A3016 RMK AO2
Loading
Personal Weather Stations






























Interactive Weather Map New forecast layout! Learn more

10-Day Weather Forecast

Advertisements
Track Severe Weather on mobile